Time;durP1;ratioP1;P1;durP2;ratioP2;P2;SDS_P1;SDS_P2;PMS_P1;PMS_P2;Temp;Humidity;BMP_temperature;BMP_pressure;BME280_temperature;BME280_humidity;BME280_pressure;Samples;Min_cycle;Max_cycle;Signal;HPM_P1;HPM_P2
2023/04/04 00:01:05;;;;;;;11.40;10.63;;;3.20;99.90;;;;;;4730499;30;20577;-45
2023/04/04 00:03:31;;;;;;;12.00;11.30;;;3.20;99.90;;;;;;4739802;30;20533;-47
2023/04/04 00:05:57;;;;;;;10.98;10.30;;;3.20;99.90;;;;;;4739963;30;20269;-44
2023/04/04 00:08:22;;;;;;;12.30;11.40;;;3.20;99.90;;;;;;4740059;30;20193;-40
2023/04/04 00:10:48;;;;;;;11.60;10.90;;;3.20;99.90;;;;;;4739989;30;20291;-41
2023/04/04 00:13:14;;;;;;;11.60;10.80;;;3.10;99.90;;;;;;4740196;30;20188;-40
2023/04/04 00:15:40;;;;;;;11.70;11.00;;;3.10;99.90;;;;;;4739666;30;20436;-42
2023/04/04 00:18:06;;;;;;;11.45;10.70;;;3.10;99.90;;;;;;4739641;30;20184;-42
2023/04/04 00:20:31;;;;;;;11.87;10.90;;;3.10;99.90;;;;;;4739786;30;20192;-44
2023/04/04 00:22:57;;;;;;;11.50;10.87;;;3.10;99.90;;;;;;4739715;30;20200;-42
2023/04/04 00:25:23;;;;;;;11.75;11.15;;;3.10;99.90;;;;;;4739816;30;20212;-43
2023/04/04 00:27:49;;;;;;;11.80;10.93;;;3.00;99.90;;;;;;4739353;30;20363;-42
2023/04/04 00:30:15;;;;;;;11.80;11.10;;;3.10;99.90;;;;;;4739534;30;20462;-42
2023/04/04 00:32:40;;;;;;;11.73;11.03;;;3.00;99.90;;;;;;4739413;30;20187;-41
2023/04/04 00:35:06;;;;;;;11.87;11.10;;;3.00;99.90;;;;;;4732421;30;20289;-42
2023/04/04 00:37:32;;;;;;;12.32;11.52;;;3.00;99.90;;;;;;4735175;30;20266;-42
2023/04/04 00:39:58;;;;;;;11.95;11.15;;;3.00;99.90;;;;;;4739089;30;20268;-41
2023/04/04 00:42:24;;;;;;;11.80;11.10;;;3.00;99.90;;;;;;4739327;30;20675;-41
2023/04/04 00:44:51;;;;;;;11.53;10.93;;;3.00;99.90;;;;;;4739297;30;20204;-42
2023/04/04 00:47:16;;;;;;;12.27;11.35;;;3.00;99.90;;;;;;4739239;30;20248;-41
2023/04/04 00:49:45;;;;;;;11.70;11.00;;;3.00;99.90;;;;;;4739255;30;20543;-42
2023/04/04 00:52:11;;;;;;;12.23;11.50;;;2.90;99.90;;;;;;4731560;30;20185;-42
2023/04/04 00:54:37;;;;;;;11.90;11.20;;;2.90;99.90;;;;;;4731620;30;20203;-42
2023/04/04 00:57:05;;;;;;;11.80;11.10;;;2.90;99.90;;;;;;4735684;30;20208;-42
2023/04/04 00:59:31;;;;;;;11.25;10.52;;;2.90;99.90;;;;;;4739141;30;20617;-40
2023/04/04 01:01:58;;;;;;;11.30;10.60;;;2.80;99.90;;;;;;4739202;30;20188;-43
2023/04/04 01:04:24;;;;;;;12.23;11.40;;;2.80;99.90;;;;;;4738703;30;20427;-42
2023/04/04 01:06:50;;;;;;;12.30;11.40;;;2.80;99.90;;;;;;4738570;30;20315;-43
2023/04/04 01:09:17;;;;;;;12.15;11.35;;;2.80;99.90;;;;;;4738986;30;20195;-44
2023/04/04 01:11:43;;;;;;;12.35;11.52;;;2.80;99.90;;;;;;4738815;30;20196;-42
2023/04/04 01:14:08;;;;;;;14.30;13.15;;;2.80;99.90;;;;;;4739045;30;20200;-42
2023/04/04 01:16:35;;;;;;;11.97;11.27;;;2.80;99.90;;;;;;4738777;30;20219;-42
2023/04/04 01:19:01;;;;;;;11.20;10.60;;;2.80;99.90;;;;;;4739049;30;20276;-42
2023/04/04 01:21:28;;;;;;;11.38;10.60;;;2.80;99.90;;;;;;4738891;30;20230;-45
2023/04/04 01:24:02;;;;;;;11.35;10.68;;;2.80;99.90;;;;;;4738950;30;20192;-41
2023/04/04 01:26:28;;;;;;;11.50;10.90;;;2.80;99.90;;;;;;4738632;30;20266;-40
2023/04/04 01:28:58;;;;;;;11.87;10.87;;;2.80;99.90;;;;;;4722838;30;20204;-42
2023/04/04 01:31:43;;;;;;;12.10;11.40;;;2.80;99.90;;;;;;4738658;30;20935;-41
2023/04/04 01:34:32;;;;;;;13.10;12.32;;;2.70;99.90;;;;;;4736495;30;20794;-42
2023/04/04 01:37:06;;;;;;;11.55;10.85;;;2.80;99.90;;;;;;4721096;30;20697;-43
2023/04/04 01:39:43;;;;;;;11.25;10.65;;;2.70;99.90;;;;;;4738903;30;20291;-44
2023/04/04 01:42:10;;;;;;;11.40;10.80;;;2.70;99.90;;;;;;4738628;30;20193;-41
2023/04/04 01:44:36;;;;;;;11.70;11.00;;;2.70;99.90;;;;;;4738730;30;20200;-40
2023/04/04 01:47:06;;;;;;;11.17;10.50;;;2.70;99.90;;;;;;4733049;30;20307;-45
2023/04/04 01:49:31;;;;;;;11.48;10.77;;;2.80;99.90;;;;;;4738485;30;20507;-42
2023/04/04 01:51:57;;;;;;;11.63;10.80;;;2.70;99.90;;;;;;4729786;30;20201;-43
2023/04/04 01:54:22;;;;;;;11.30;10.60;;;2.60;99.90;;;;;;4738936;30;20203;-44
2023/04/04 01:56:48;;;;;;;12.30;11.50;;;2.70;99.90;;;;;;4738223;30;20217;-40
2023/04/04 01:59:14;;;;;;;11.90;11.13;;;2.70;99.90;;;;;;4739084;30;20866;-43
2023/04/04 02:01:40;;;;;;;12.20;11.37;;;2.70;99.90;;;;;;4738793;30;21274;-42
2023/04/04 02:04:06;;;;;;;12.03;11.27;;;2.70;99.90;;;;;;4738758;30;20783;-43
2023/04/04 02:06:31;;;;;;;12.82;12.02;;;2.80;99.90;;;;;;4738826;30;20257;-43
2023/04/04 02:08:57;;;;;;;11.33;10.70;;;2.70;99.90;;;;;;4738451;30;20354;-42
2023/04/04 02:11:22;;;;;;;12.23;11.20;;;2.70;99.90;;;;;;4738423;30;21091;-40
2023/04/04 02:13:48;;;;;;;11.60;11.00;;;2.70;99.90;;;;;;4738387;30;20220;-41
2023/04/04 02:16:14;;;;;;;11.73;11.02;;;2.70;99.90;;;;;;4738871;30;20217;-42
2023/04/04 02:18:41;;;;;;;13.03;11.97;;;2.70;99.90;;;;;;4741650;30;20207;-42
2023/04/04 02:21:06;;;;;;;11.38;10.68;;;2.70;99.90;;;;;;4740806;30;20438;-42
2023/04/04 02:23:32;;;;;;;11.67;10.97;;;2.60;99.90;;;;;;4741919;30;20188;-40
2023/04/04 02:25:58;;;;;;;11.73;11.03;;;2.70;99.90;;;;;;4741951;30;20488;-41
2023/04/04 02:28:24;;;;;;;11.57;10.90;;;2.60;99.90;;;;;;4741286;30;20234;-41
2023/04/04 02:30:51;;;;;;;11.98;11.23;;;2.60;99.90;;;;;;4741978;30;20256;-42
2023/04/04 02:33:16;;;;;;;11.10;10.40;;;2.60;99.90;;;;;;4741118;30;20246;-41
2023/04/04 02:35:42;;;;;;;11.50;10.60;;;2.50;99.90;;;;;;4741289;30;20197;-41
2023/04/04 02:38:07;;;;;;;12.00;11.30;;;2.60;99.90;;;;;;4741355;30;20379;-42
2023/04/04 02:40:34;;;;;;;12.07;11.30;;;2.50;99.90;;;;;;4741420;30;20188;-41
2023/04/04 02:43:00;;;;;;;12.05;11.25;;;2.50;99.90;;;;;;4741248;30;20204;-42
2023/04/04 02:45:25;;;;;;;11.40;10.70;;;2.50;99.90;;;;;;4741141;30;20629;-43
2023/04/04 02:47:52;;;;;;;11.60;10.90;;;2.50;99.90;;;;;;4741218;30;20240;-42
2023/04/04 02:50:18;;;;;;;11.80;11.10;;;2.50;99.90;;;;;;4741242;30;20230;-42
2023/04/04 02:52:43;;;;;;;11.43;10.73;;;2.50;99.90;;;;;;4733804;30;20284;-42
2023/04/04 02:55:09;;;;;;;12.13;11.43;;;2.40;99.90;;;;;;4740986;30;20462;-43
2023/04/04 02:57:35;;;;;;;12.77;11.87;;;2.40;99.90;;;;;;4730108;30;20296;-41
2023/04/04 03:00:02;;;;;;;12.70;11.70;;;2.40;99.90;;;;;;4741203;30;20196;-41
2023/04/04 03:02:28;;;;;;;11.43;10.68;;;2.40;99.90;;;;;;4741143;30;20692;-41
2023/04/04 03:04:54;;;;;;;11.47;10.63;;;2.40;99.90;;;;;;4740564;30;20440;-41
2023/04/04 03:07:21;;;;;;;11.30;10.60;;;2.30;99.90;;;;;;4741079;30;20560;-42
2023/04/04 03:09:47;;;;;;;10.90;10.30;;;2.20;99.90;;;;;;4740756;30;20201;-42
2023/04/04 03:12:13;;;;;;;14.77;13.88;;;2.20;99.90;;;;;;4740735;30;20196;-41
2023/04/04 03:14:39;;;;;;;12.33;11.33;;;2.10;99.90;;;;;;4738780;30;20203;-41
2023/04/04 03:17:05;;;;;;;12.10;11.00;;;2.10;99.90;;;;;;4740507;30;20220;-43
2023/04/04 03:19:31;;;;;;;12.60;11.60;;;2.10;99.90;;;;;;4740537;30;20205;-42
2023/04/04 03:21:56;;;;;;;12.00;11.00;;;2.00;99.90;;;;;;4740726;30;20331;-42
2023/04/04 03:24:22;;;;;;;12.23;11.23;;;1.90;99.90;;;;;;4740307;30;20427;-42
2023/04/04 03:26:48;;;;;;;10.67;9.97;;;1.90;99.90;;;;;;4740558;30;20200;-40
2023/04/04 03:29:14;;;;;;;11.47;10.67;;;1.80;99.90;;;;;;4728489;30;20420;-41
2023/04/04 03:31:40;;;;;;;9.97;9.37;;;1.80;99.90;;;;;;4724568;30;20193;-42
2023/04/04 03:34:06;;;;;;;11.35;10.45;;;1.80;99.90;;;;;;4735965;30;20223;-42
2023/04/04 03:36:31;;;;;;;10.17;9.57;;;1.80;99.90;;;;;;4740352;30;20475;-41
2023/04/04 03:38:57;;;;;;;11.70;10.90;;;1.80;99.90;;;;;;4740406;30;20740;-43
2023/04/04 03:41:22;;;;;;;11.40;10.60;;;1.80;99.90;;;;;;4740283;30;20231;-43
2023/04/04 03:43:48;;;;;;;11.10;10.30;;;1.80;99.90;;;;;;4740383;30;20299;-42
2023/04/04 03:46:14;;;;;;;11.75;11.02;;;1.80;99.90;;;;;;4739784;30;20239;-41
2023/04/04 03:48:40;;;;;;;10.93;10.30;;;1.80;99.90;;;;;;4739994;30;20553;-40
2023/04/04 03:51:06;;;;;;;10.60;9.90;;;1.80;99.90;;;;;;4740122;30;20911;-43
2023/04/04 03:53:32;;;;;;;11.52;10.73;;;1.80;99.90;;;;;;4739134;30;20193;-41
2023/04/04 03:55:59;;;;;;;11.13;10.23;;;1.80;99.90;;;;;;4740014;30;20204;-42
2023/04/04 03:58:27;;;;;;;11.88;10.82;;;1.80;99.90;;;;;;4739905;30;20824;-41
2023/04/04 04:00:52;;;;;;;10.70;9.88;;;1.70;99.90;;;;;;4739679;30;20192;-41
2023/04/04 04:03:18;;;;;;;10.33;9.53;;;1.70;99.90;;;;;;4740063;30;20564;-42
2023/04/04 04:05:43;;;;;;;10.93;10.23;;;1.70;99.90;;;;;;4740000;30;20189;-41
2023/04/04 04:08:09;;;;;;;10.57;9.87;;;1.70;99.90;;;;;;4739216;30;20208;-41
2023/04/04 04:10:35;;;;;;;11.17;10.30;;;1.70;99.90;;;;;;4729825;30;20282;-45
2023/04/04 04:13:01;;;;;;;11.60;10.70;;;1.70;99.90;;;;;;4739645;30;20513;-43
2023/04/04 04:15:27;;;;;;;11.68;10.82;;;1.70;99.90;;;;;;4740097;30;20196;-42
2023/04/04 04:17:52;;;;;;;11.37;10.53;;;1.70;99.90;;;;;;4739692;30;20224;-41
2023/04/04 04:20:18;;;;;;;11.80;11.03;;;1.70;99.90;;;;;;4739672;30;20192;-42
2023/04/04 04:22:47;;;;;;;11.67;10.77;;;1.70;99.90;;;;;;4739801;30;20192;-42
2023/04/04 04:25:16;;;;;;;11.48;10.60;;;1.70;99.90;;;;;;4739618;30;20571;-41
2023/04/04 04:27:44;;;;;;;11.82;10.73;;;1.60;99.90;;;;;;4739244;30;20208;-41
2023/04/04 04:30:09;;;;;;;12.00;11.10;;;1.70;99.90;;;;;;4739382;30;20192;-42
2023/04/04 04:32:35;;;;;;;11.30;10.40;;;1.70;99.90;;;;;;4739388;30;20207;-40
2023/04/04 04:35:01;;;;;;;11.63;10.83;;;1.70;99.90;;;;;;4739689;30;20690;-42
2023/04/04 04:37:27;;;;;;;11.50;10.40;;;1.70;99.90;;;;;;4737778;30;20813;-42
2023/04/04 04:39:53;;;;;;;11.82;11.10;;;1.70;99.90;;;;;;4726009;30;20734;-41
2023/04/04 04:42:18;;;;;;;11.27;10.57;;;1.70;99.90;;;;;;4735720;30;20192;-43
2023/04/04 04:44:44;;;;;;;10.40;9.73;;;1.70;99.90;;;;;;4739447;30;20188;-41
2023/04/04 04:47:10;;;;;;;11.80;11.00;;;1.70;99.90;;;;;;4738876;30;20243;-46
2023/04/04 04:49:35;;;;;;;11.07;10.30;;;1.70;99.90;;;;;;4730064;30;20193;-42
2023/04/04 04:52:01;;;;;;;11.67;10.77;;;1.60;99.90;;;;;;4722380;30;20224;-42
2023/04/04 04:54:27;;;;;;;12.30;11.20;;;1.70;99.90;;;;;;4738998;30;20568;-42
2023/04/04 04:56:53;;;;;;;12.40;11.30;;;1.70;99.90;;;;;;4738886;30;20475;-41
2023/04/04 04:59:18;;;;;;;11.97;11.10;;;1.70;99.90;;;;;;4731790;30;20241;-42
2023/04/04 05:01:44;;;;;;;12.40;11.40;;;1.70;99.90;;;;;;4739144;30;20197;-42
2023/04/04 05:04:10;;;;;;;11.77;10.88;;;1.80;99.90;;;;;;4739020;30;20538;-44
2023/04/04 05:06:37;;;;;;;11.77;10.97;;;1.80;99.90;;;;;;4738830;30;20246;-42
2023/04/04 05:09:03;;;;;;;11.82;10.90;;;1.80;99.90;;;;;;4730058;30;20657;-41
2023/04/04 05:11:28;;;;;;;11.60;10.63;;;1.80;99.90;;;;;;4739050;30;20203;-44
2023/04/04 05:13:54;;;;;;;11.57;10.67;;;1.80;99.90;;;;;;4739018;30;20192;-42
2023/04/04 05:16:20;;;;;;;10.83;10.13;;;1.80;99.90;;;;;;4727730;30;20300;-41
2023/04/04 05:18:46;;;;;;;11.17;10.47;;;1.90;99.90;;;;;;4728484;30;20562;-41
2023/04/04 05:21:11;;;;;;;12.17;11.37;;;1.90;99.90;;;;;;4739043;30;20230;-42
2023/04/04 05:23:37;;;;;;;12.10;11.17;;;2.00;99.90;;;;;;4739554;30;20435;-43
2023/04/04 05:26:03;;;;;;;12.53;11.60;;;2.00;99.90;;;;;;4738984;30;20513;-41
2023/04/04 05:28:28;;;;;;;12.37;10.60;;;2.00;99.90;;;;;;4739008;30;20503;-41
2023/04/04 05:30:54;;;;;;;13.20;12.13;;;2.00;99.90;;;;;;4722603;30;20200;-40
2023/04/04 05:33:20;;;;;;;12.27;11.40;;;2.00;99.90;;;;;;4737953;30;20625;-43
2023/04/04 05:35:45;;;;;;;11.33;10.53;;;2.00;99.90;;;;;;4738688;30;20205;-41
2023/04/04 05:38:12;;;;;;;13.83;12.47;;;2.10;99.90;;;;;;4738772;30;20259;-43
2023/04/04 05:40:37;;;;;;;11.13;10.38;;;2.10;99.90;;;;;;4739124;30;20589;-42
2023/04/04 05:43:03;;;;;;;11.83;10.93;;;2.20;99.90;;;;;;4738915;30;20374;-43
2023/04/04 05:45:30;;;;;;;12.40;11.30;;;2.30;99.90;;;;;;4739121;30;20236;-42
2023/04/04 05:47:56;;;;;;;11.77;10.98;;;2.40;99.90;;;;;;4738476;30;20223;-42
2023/04/04 05:50:22;;;;;;;11.87;11.07;;;2.40;99.90;;;;;;4738743;30;20303;-42
2023/04/04 05:52:47;;;;;;;12.10;11.00;;;2.50;99.90;;;;;;4732403;30;20445;-43
2023/04/04 05:55:13;;;;;;;11.77;10.77;;;2.50;99.90;;;;;;4741724;30;20196;-42
2023/04/04 05:57:47;;;;;;;11.00;10.10;;;2.60;99.90;;;;;;4742466;30;20232;-42
2023/04/04 06:00:14;;;;;;;12.23;11.32;;;2.70;99.90;;;;;;4730514;30;20202;-42
2023/04/04 06:02:40;;;;;;;12.30;11.40;;;2.70;99.90;;;;;;4742003;30;20639;-41
2023/04/04 06:05:07;;;;;;;11.82;11.02;;;2.90;99.90;;;;;;4738301;30;20195;-41
2023/04/04 06:07:32;;;;;;;13.73;12.63;;;2.90;99.90;;;;;;4741767;30;20203;-41
2023/04/04 06:09:58;;;;;;;14.83;13.53;;;3.00;99.90;;;;;;4741911;30;20204;-42
2023/04/04 06:12:24;;;;;;;13.53;12.43;;;3.00;99.90;;;;;;4741595;30;20631;-41
2023/04/04 06:14:50;;;;;;;12.33;11.37;;;3.10;99.90;;;;;;4741667;30;20197;-43
2023/04/04 06:17:15;;;;;;;13.40;12.30;;;3.20;99.90;;;;;;4741669;30;20474;-45
2023/04/04 06:19:41;;;;;;;11.30;10.40;;;3.20;99.90;;;;;;4740373;30;20197;-40
2023/04/04 06:22:06;;;;;;;10.70;9.83;;;3.30;99.90;;;;;;4741789;30;20197;-42
2023/04/04 06:24:32;;;;;;;14.37;13.17;;;3.20;99.90;;;;;;4741510;30;20706;-43
2023/04/04 06:26:57;;;;;;;12.00;11.00;;;3.20;99.90;;;;;;4742462;30;20193;-41
2023/04/04 06:29:24;;;;;;;12.67;11.57;;;3.20;99.90;;;;;;4741656;30;20313;-43
2023/04/04 06:31:50;;;;;;;11.70;10.70;;;3.20;99.90;;;;;;4741296;30;20200;-43
2023/04/04 06:34:16;;;;;;;12.07;11.27;;;3.10;99.90;;;;;;4741422;30;20764;-45
2023/04/04 06:36:41;;;;;;;11.43;10.63;;;3.10;99.90;;;;;;4741350;30;20252;-41
2023/04/04 06:39:07;;;;;;;11.97;11.10;;;3.00;99.90;;;;;;4736759;30;20192;-41
2023/04/04 06:41:32;;;;;;;11.47;10.43;;;3.00;99.90;;;;;;4741153;30;20235;-40
2023/04/04 06:43:59;;;;;;;10.75;10.05;;;3.00;99.90;;;;;;4741309;30;20342;-44
2023/04/04 06:46:26;;;;;;;11.50;10.60;;;2.90;99.90;;;;;;4741212;30;20236;-42
2023/04/04 06:48:51;;;;;;;10.82;9.93;;;3.00;99.90;;;;;;4739455;30;20184;-42
2023/04/04 06:51:17;;;;;;;10.53;9.83;;;2.90;99.90;;;;;;4730009;30;20197;-43
2023/04/04 06:53:43;;;;;;;10.37;9.70;;;2.90;99.90;;;;;;4724354;30;20259;-46
2023/04/04 06:56:09;;;;;;;11.73;10.63;;;2.90;99.90;;;;;;4725020;30;20201;-49
2023/04/04 06:58:35;;;;;;;10.80;9.97;;;2.90;99.90;;;;;;4741092;30;20211;-45
2023/04/04 07:01:01;;;;;;;11.05;10.35;;;2.90;99.90;;;;;;4740913;30;20431;-46
2023/04/04 07:03:29;;;;;;;10.60;9.80;;;2.90;99.90;;;;;;4740000;30;20246;-47
2023/04/04 07:05:55;;;;;;;9.60;9.00;;;2.90;99.70;;;;;;4741063;30;20780;-45
2023/04/04 07:08:21;;;;;;;11.50;10.60;;;2.90;99.60;;;;;;4740691;30;20220;-48
2023/04/04 07:10:47;;;;;;;11.63;10.35;;;2.90;99.00;;;;;;4740980;30;20219;-46
2023/04/04 07:13:13;;;;;;;10.63;9.90;;;2.90;99.00;;;;;;4741183;30;20629;-47
2023/04/04 07:15:39;;;;;;;10.40;9.63;;;3.00;98.90;;;;;;4731350;30;20658;-46
2023/04/04 07:18:04;;;;;;;11.37;10.57;;;3.00;98.80;;;;;;4740784;30;20204;-46
2023/04/04 07:20:31;;;;;;;11.40;10.47;;;3.00;98.80;;;;;;4737812;30;20300;-46
2023/04/04 07:22:56;;;;;;;9.93;9.20;;;3.10;99.00;;;;;;4737013;30;20438;-45
2023/04/04 07:25:22;;;;;;;11.07;10.37;;;3.20;98.30;;;;;;4740731;30;20192;-45
2023/04/04 07:27:47;;;;;;;10.60;9.90;;;3.20;97.80;;;;;;4740341;30;20289;-45
2023/04/04 07:30:13;;;;;;;11.17;10.33;;;3.30;97.20;;;;;;4740851;30;20197;-45
2023/04/04 07:32:39;;;;;;;12.13;11.30;;;3.30;96.70;;;;;;4740713;30;20200;-48
2023/04/04 07:35:05;;;;;;;12.50;11.60;;;3.40;96.50;;;;;;4739901;30;20326;-46
2023/04/04 07:37:32;;;;;;;11.55;10.55;;;3.40;96.40;;;;;;4739060;30;20764;-47
2023/04/04 07:39:58;;;;;;;10.20;9.70;;;3.50;96.50;;;;;;4724598;30;20197;-43
2023/04/04 07:42:24;;;;;;;11.87;11.17;;;3.60;95.60;;;;;;4740372;30;20201;-47
2023/04/04 07:44:50;;;;;;;11.43;10.73;;;3.70;95.30;;;;;;4740283;30;20426;-45
2023/04/04 07:47:16;;;;;;;11.35;10.65;;;3.70;94.80;;;;;;4739880;30;20246;-45
2023/04/04 07:49:42;;;;;;;11.10;10.40;;;3.80;94.00;;;;;;4740237;30;20699;-44
2023/04/04 07:52:08;;;;;;;11.88;11.18;;;3.90;93.60;;;;;;4716758;30;20307;-47
2023/04/04 07:54:35;;;;;;;11.70;10.73;;;4.10;93.50;;;;;;4724284;30;20203;-45
2023/04/04 07:57:04;;;;;;;11.95;11.25;;;4.20;93.00;;;;;;4740202;30;20221;-45
2023/04/04 07:59:30;;;;;;;11.55;10.85;;;4.30;92.60;;;;;;4740112;30;20266;-43
2023/04/04 08:01:55;;;;;;;11.73;11.00;;;4.40;89.50;;;;;;4739882;30;20476;-47
2023/04/04 08:04:21;;;;;;;12.40;11.57;;;4.50;86.50;;;;;;4739858;30;20429;-46
2023/04/04 08:06:46;;;;;;;10.90;10.10;;;4.60;84.20;;;;;;4739807;30;20207;-46
2023/04/04 08:09:12;;;;;;;11.30;10.47;;;4.70;79.90;;;;;;4739590;30;20376;-45
2023/04/04 08:11:37;;;;;;;10.57;9.97;;;4.80;78.60;;;;;;4740116;30;20271;-49
2023/04/04 08:14:03;;;;;;;10.80;10.10;;;4.80;78.70;;;;;;4734557;30;20626;-49
2023/04/04 08:16:29;;;;;;;10.10;9.50;;;5.00;77.50;;;;;;4739871;30;20217;-48
2023/04/04 08:18:54;;;;;;;11.60;10.80;;;5.10;75.90;;;;;;4739503;30;20312;-52
2023/04/04 08:21:20;;;;;;;10.40;9.90;;;5.30;75.70;;;;;;4739785;30;20236;-44
2023/04/04 08:23:45;;;;;;;11.20;10.50;;;5.50;74.20;;;;;;4739730;30;20193;-42
2023/04/04 08:26:11;;;;;;;10.77;10.20;;;5.60;74.90;;;;;;4739816;30;20653;-41
2023/04/04 08:28:37;;;;;;;13.77;12.80;;;5.80;72.10;;;;;;4739937;30;20645;-42
2023/04/04 08:31:03;;;;;;;9.25;8.85;;;6.00;67.60;;;;;;4738511;30;20212;-42
2023/04/04 08:33:29;;;;;;;11.27;10.60;;;6.20;64.90;;;;;;4720579;30;20200;-42
2023/04/04 08:35:57;;;;;;;10.07;9.57;;;6.50;63.50;;;;;;4739480;30;20206;-42
2023/04/04 08:38:22;;;;;;;10.60;10.10;;;6.70;61.10;;;;;;4739337;30;20676;-41
2023/04/04 08:40:48;;;;;;;10.07;9.57;;;7.20;61.70;;;;;;4739744;30;20435;-42
2023/04/04 08:43:15;;;;;;;11.40;10.87;;;7.40;58.80;;;;;;4739244;30;20528;-44
2023/04/04 08:45:43;;;;;;;10.90;10.30;;;7.80;57.20;;;;;;4739309;30;20836;-44
2023/04/04 08:48:15;;;;;;;10.30;9.70;;;8.20;53.60;;;;;;4739419;30;20440;-42
2023/04/04 08:50:43;;;;;;;10.87;10.27;;;8.50;51.60;;;;;;4739034;30;21367;-42
2023/04/04 08:53:10;;;;;;;10.60;9.90;;;9.00;51.70;;;;;;4735787;30;20427;-44
2023/04/04 08:55:40;;;;;;;9.73;9.23;;;9.50;50.50;;;;;;4739314;30;21088;-43
2023/04/04 08:58:06;;;;;;;8.63;8.13;;;9.90;48.30;;;;;;4739379;30;21058;-44
2023/04/04 09:00:31;;;;;;;10.53;10.03;;;10.60;43.70;;;;;;4739105;30;20433;-44
2023/04/04 09:03:16;;;;;;;10.00;9.50;;;10.90;41.80;;;;;;4739805;30;20195;-43
2023/04/04 09:05:43;;;;;;;10.20;9.60;;;11.60;39.80;;;;;;4739186;30;20520;-42
2023/04/04 09:08:11;;;;;;;10.40;9.90;;;12.00;37.40;;;;;;4723148;30;20435;-41
2023/04/04 09:10:37;;;;;;;10.10;9.50;;;12.10;36.70;;;;;;4739110;30;20431;-41
2023/04/04 09:13:03;;;;;;;11.13;10.53;;;12.30;35.80;;;;;;4739078;30;20563;-44
2023/04/04 09:15:30;;;;;;;10.00;9.50;;;12.60;33.30;;;;;;4739299;30;20435;-43
2023/04/04 09:17:56;;;;;;;10.50;10.00;;;12.60;33.60;;;;;;4738935;30;20479;-43
2023/04/04 09:20:40;;;;;;;9.43;8.83;;;13.10;33.50;;;;;;4739072;30;20462;-46
2023/04/04 09:23:12;;;;;;;10.27;9.67;;;13.40;32.20;;;;;;4735738;30;20736;-41
2023/04/04 09:25:54;;;;;;;9.80;9.40;;;13.20;29.80;;;;;;4738804;30;20635;-42
2023/04/04 09:28:21;;;;;;;9.70;9.30;;;13.10;30.90;;;;;;4742765;30;20434;-43
2023/04/04 09:30:51;;;;;;;10.57;9.80;;;13.20;32.40;;;;;;4742386;30;20422;-47
2023/04/04 09:33:18;;;;;;;9.67;9.27;;;13.10;30.40;;;;;;4740141;30;20453;-44
2023/04/04 09:35:48;;;;;;;10.73;10.13;;;13.50;29.60;;;;;;4737326;30;20434;-43
2023/04/04 09:38:15;;;;;;;10.30;9.80;;;13.90;29.60;;;;;;4742363;30;20521;-44
2023/04/04 09:40:41;;;;;;;9.70;9.20;;;14.40;29.50;;;;;;4742437;30;20973;-42
2023/04/04 09:43:07;;;;;;;10.70;10.20;;;14.40;28.70;;;;;;4742732;30;20425;-41
2023/04/04 09:45:38;;;;;;;9.10;8.70;;;14.30;27.30;;;;;;4741923;30;20681;-43
2023/04/04 09:48:05;;;;;;;10.17;9.67;;;14.30;26.90;;;;;;4742007;30;20529;-42
2023/04/04 09:50:32;;;;;;;10.40;9.83;;;14.70;27.70;;;;;;4742118;30;20509;-41
2023/04/04 09:52:59;;;;;;;10.13;9.60;;;14.80;25.80;;;;;;4734730;30;20511;-44
2023/04/04 09:55:35;;;;;;;9.97;9.47;;;15.00;26.40;;;;;;4742110;30;20434;-46
2023/04/04 09:58:12;;;;;;;9.70;9.20;;;14.60;26.10;;;;;;4741971;30;20478;-42
2023/04/04 10:00:41;;;;;;;10.00;9.50;;;14.30;24.70;;;;;;4741894;30;20844;-43
2023/04/04 10:03:07;;;;;;;8.60;8.20;;;13.90;26.10;;;;;;4741594;30;20430;-46
2023/04/04 10:05:33;;;;;;;9.80;9.37;;;13.80;26.80;;;;;;4730373;30;21473;-42
2023/04/04 10:08:00;;;;;;;9.57;9.17;;;13.90;26.10;;;;;;4741682;30;20517;-45
2023/04/04 10:10:30;;;;;;;9.60;9.20;;;14.10;27.50;;;;;;4742197;30;20434;-44
2023/04/04 10:12:57;;;;;;;10.40;9.90;;;13.40;25.70;;;;;;4741972;30;20517;-42
2023/04/04 10:15:23;;;;;;;9.80;9.40;;;12.50;26.00;;;;;;4741796;30;20438;-42
2023/04/04 10:17:54;;;;;;;9.90;9.50;;;12.00;27.30;;;;;;4741605;30;20844;-43
2023/04/04 10:20:21;;;;;;;9.53;9.03;;;12.00;27.90;;;;;;4741548;30;20918;-42
2023/04/04 10:22:47;;;;;;;9.87;9.47;;;12.10;26.50;;;;;;4741568;30;20734;-42
2023/04/04 10:25:13;;;;;;;9.60;9.20;;;12.70;24.90;;;;;;4741662;30;20434;-43
2023/04/04 10:27:38;;;;;;;9.80;9.40;;;13.30;25.90;;;;;;4742002;30;20466;-47
2023/04/04 10:30:04;;;;;;;9.33;8.93;;;13.90;25.20;;;;;;4741413;30;20437;-42
2023/04/04 10:32:46;;;;;;;10.23;9.83;;;14.80;25.90;;;;;;4741557;30;20231;-41
2023/04/04 10:35:12;;;;;;;10.37;9.97;;;15.70;25.80;;;;;;4741602;30;20480;-42
2023/04/04 10:37:55;;;;;;;10.10;9.60;;;16.40;25.00;;;;;;4740974;30;20473;-44
2023/04/04 10:40:23;;;;;;;11.27;10.67;;;17.20;24.10;;;;;;4741423;30;20438;-44
2023/04/04 10:42:49;;;;;;;9.77;9.37;;;17.00;22.30;;;;;;4730430;30;20807;-45
2023/04/04 10:45:16;;;;;;;11.20;10.70;;;16.10;23.40;;;;;;4734301;30;20420;-42
2023/04/04 10:47:42;;;;;;;10.90;10.30;;;16.40;23.90;;;;;;4740960;30;20479;-44
2023/04/04 10:50:10;;;;;;;11.13;10.63;;;16.40;22.10;;;;;;4741404;30;21019;-45
2023/04/04 10:52:38;;;;;;;10.70;10.20;;;16.10;22.90;;;;;;4732463;30;20907;-41
2023/04/04 10:55:07;;;;;;;10.37;9.87;;;15.50;22.70;;;;;;4741392;30;20579;-41
2023/04/04 10:57:37;;;;;;;9.73;9.33;;;15.10;23.60;;;;;;4741130;30;20470;-42
2023/04/04 11:00:11;;;;;;;10.10;9.60;;;15.40;23.40;;;;;;4724968;30;21315;-46
2023/04/04 11:02:50;;;;;;;10.40;10.00;;;15.90;23.20;;;;;;4741651;30;20521;-49
2023/04/04 11:05:23;;;;;;;10.03;9.57;;;16.20;22.90;;;;;;4741106;30;20451;-48
2023/04/04 11:08:12;;;;;;;10.90;10.40;;;16.60;22.10;;;;;;4740654;30;20580;-49
2023/04/04 11:10:42;;;;;;;10.37;9.97;;;16.90;20.60;;;;;;4740760;30;20533;-47
2023/04/04 11:13:15;;;;;;;10.87;10.37;;;17.60;19.80;;;;;;4723927;30;20974;-50
2023/04/04 11:15:55;;;;;;;9.87;9.47;;;18.50;19.70;;;;;;4740800;30;20439;-48
2023/04/04 11:18:42;;;;;;;10.37;9.87;;;18.30;18.40;;;;;;4740711;30;20474;-48
2023/04/04 11:21:18;;;;;;;10.00;9.60;;;18.60;19.20;;;;;;4740656;30;20520;-46
2023/04/04 11:23:47;;;;;;;10.33;9.83;;;18.80;19.90;;;;;;4730712;30;20462;-48
2023/04/04 11:26:17;;;;;;;10.67;10.27;;;18.70;18.50;;;;;;4740458;30;20439;-48
2023/04/04 11:28:44;;;;;;;10.37;9.87;;;18.80;18.70;;;;;;4731716;30;20443;-49
2023/04/04 11:31:16;;;;;;;10.07;9.67;;;19.10;18.20;;;;;;4740516;30;20442;-49
2023/04/04 11:34:28;;;;;;;10.30;9.80;;;19.20;18.70;;;;;;4740562;30;20811;-45
2023/04/04 11:36:53;;;;;;;11.07;10.57;;;19.50;18.10;;;;;;4727609;30;20489;-45
2023/04/04 11:39:29;;;;;;;10.80;9.93;;;19.30;18.50;;;;;;4740251;30;20438;-45
2023/04/04 11:42:03;;;;;;;9.73;9.23;;;19.20;17.00;;;;;;4735598;30;20243;-50
2023/04/04 11:44:31;;;;;;;10.43;9.93;;;19.40;16.40;;;;;;4740273;30;20433;-43
2023/04/04 11:47:07;;;;;;;10.60;10.10;;;19.70;17.20;;;;;;4739884;30;20925;-45
2023/04/04 11:49:36;;;;;;;9.50;9.10;;;20.10;18.50;;;;;;4721149;30;20769;-50
2023/04/04 11:52:09;;;;;;;10.00;9.50;;;19.40;16.70;;;;;;4736311;30;20431;-51
2023/04/04 11:54:39;;;;;;;9.20;8.80;;;19.70;17.20;;;;;;4730648;30;20586;-48
2023/04/04 11:57:11;;;;;;;9.77;9.23;;;19.70;18.10;;;;;;4740004;30;20970;-47
2023/04/04 11:59:47;;;;;;;10.53;9.93;;;19.40;17.20;;;;;;4739566;30;20441;-45
2023/04/04 12:02:18;;;;;;;10.80;10.20;;;19.70;16.60;;;;;;4739845;30;20438;-49
2023/04/04 12:04:46;;;;;;;11.03;10.53;;;19.60;16.90;;;;;;4740121;30;20553;-46
2023/04/04 12:07:15;;;;;;;9.80;9.37;;;19.70;18.20;;;;;;4739866;30;20482;-44
2023/04/04 12:09:41;;;;;;;8.90;8.50;;;19.90;17.10;;;;;;4739787;30;20729;-45
2023/04/04 12:12:13;;;;;;;10.00;9.60;;;19.80;16.50;;;;;;4739728;30;20430;-41
2023/04/04 12:14:39;;;;;;;10.43;9.43;;;19.80;16.60;;;;;;4740287;30;20419;-42
2023/04/04 12:17:05;;;;;;;11.10;10.60;;;20.20;17.90;;;;;;4739956;30;20983;-40
2023/04/04 12:19:37;;;;;;;10.20;9.80;;;20.50;15.90;;;;;;4739536;30;20989;-40
2023/04/04 12:22:03;;;;;;;9.80;9.30;;;20.80;17.40;;;;;;4732898;30;20506;-40
2023/04/04 12:24:28;;;;;;;10.73;10.23;;;20.80;17.10;;;;;;4735011;30;20438;-43
2023/04/04 12:26:54;;;;;;;9.57;9.07;;;19.20;15.90;;;;;;4739814;30;20227;-41
2023/04/04 12:29:22;;;;;;;10.80;10.37;;;17.00;16.70;;;;;;4739653;30;20364;-41
2023/04/04 12:31:48;;;;;;;11.00;10.50;;;16.10;19.90;;;;;;4739490;30;21001;-43
2023/04/04 12:34:21;;;;;;;11.63;11.03;;;15.40;20.70;;;;;;4739713;30;20790;-42
2023/04/04 12:36:55;;;;;;;11.37;10.77;;;15.60;21.10;;;;;;4730845;30;20783;-40
2023/04/04 12:39:22;;;;;;;13.90;13.00;;;16.20;20.50;;;;;;4732480;30;20864;-41